OMA611 OOMS-OMDB
Flight info
| Callsign | OMA611 |
|---|---|
| Flight time | 0h 37m |
| Altitude | 20000 |
| Route | MURMA DCT DAPOK T508 SOLUD P574 IMPED |
| Aircraft | B738/M-SDE2E3FGHIRWXY/LB1 |
Departure
| Time | 2026-04-25 10:46 |
|---|---|
| Airport | Muscat International Airport (OOMS) |
Arrival
| Time | 2026-04-25 11:23 |
|---|---|
| Airport | Dubai International Airport (OMDB) |
| Time | Latitude | Longitude | Altitude | Speed | Heading |
|---|---|---|---|---|---|
| 2026-04-25 10:02 | 23.59977 | 58.28561 | 33 ft | 0 kts | 40° |
| 2026-04-25 10:31 | 23.59967 | 58.28551 | 33 ft | 2 kts | 40° |
| 2026-04-25 10:31 | 23.59955 | 58.28540 | 31 ft | 2 kts | 40° |
| 2026-04-25 10:32 | 23.59942 | 58.28528 | 32 ft | 2 kts | 40° |
| 2026-04-25 10:32 | 23.59929 | 58.28517 | 33 ft | 2 kts | 40° |
| 2026-04-25 10:32 | 23.59917 | 58.28505 | 31 ft | 2 kts | 35° |
| 2026-04-25 10:32 | 23.59901 | 58.28499 | 31 ft | 2 kts | 8° |
| 2026-04-25 10:33 | 23.59885 | 58.28497 | 30 ft | 2 kts | 1° |
| 2026-04-25 10:33 | 23.59868 | 58.28497 | 32 ft | 2 kts | 357° |
| 2026-04-25 10:33 | 23.59852 | 58.28498 | 30 ft | 2 kts | 355° |
| 2026-04-25 10:33 | 23.59835 | 58.28500 | 32 ft | 2 kts | 357° |
| 2026-04-25 10:34 | 23.59820 | 58.28501 | 32 ft | 2 kts | 355° |
| 2026-04-25 10:34 | 23.59816 | 58.28501 | 32 ft | 0 kts | 355° |
| 2026-04-25 10:37 | 23.59820 | 58.28501 | 33 ft | 3 kts | 356° |
| 2026-04-25 10:37 | 23.59853 | 58.28495 | 33 ft | 5 kts | 339° |
| 2026-04-25 10:38 | 23.59874 | 58.28463 | 33 ft | 5 kts | 284° |
| 2026-04-25 10:38 | 23.59875 | 58.28421 | 33 ft | 7 kts | 265° |
| 2026-04-25 10:38 | 23.59869 | 58.28353 | 33 ft | 11 kts | 265° |
| 2026-04-25 10:38 | 23.59861 | 58.28256 | 33 ft | 15 kts | 265° |
| 2026-04-25 10:39 | 23.59851 | 58.28127 | 33 ft | 18 kts | 265° |
| 2026-04-25 10:39 | 23.59839 | 58.27982 | 33 ft | 18 kts | 265° |
| 2026-04-25 10:39 | 23.59782 | 58.27892 | 31 ft | 14 kts | 219° |
| 2026-04-25 10:39 | 23.59707 | 58.27824 | 33 ft | 14 kts | 220° |
| 2026-04-25 10:40 | 23.59628 | 58.27752 | 33 ft | 16 kts | 220° |
| 2026-04-25 10:40 | 23.59542 | 58.27657 | 33 ft | 19 kts | 253° |
| 2026-04-25 10:40 | 23.59532 | 58.27517 | 33 ft | 18 kts | 265° |
| 2026-04-25 10:40 | 23.59525 | 58.27428 | 33 ft | 17 kts | 265° |
| 2026-04-25 10:41 | 23.59616 | 58.27370 | 33 ft | 14 kts | 355° |
| 2026-04-25 10:41 | 23.59726 | 58.27360 | 33 ft | 18 kts | 355° |
| 2026-04-25 10:41 | 23.59852 | 58.27348 | 33 ft | 18 kts | 355° |
| 2026-04-25 10:41 | 23.59975 | 58.27336 | 31 ft | 17 kts | 354° |
| 2026-04-25 10:42 | 23.60094 | 58.27325 | 33 ft | 17 kts | 355° |
| 2026-04-25 10:42 | 23.60225 | 58.27313 | 33 ft | 21 kts | 355° |
| 2026-04-25 10:42 | 23.60377 | 58.27298 | 33 ft | 19 kts | 355° |
| 2026-04-25 10:42 | 23.60446 | 58.27228 | 33 ft | 16 kts | 267° |
| 2026-04-25 10:43 | 23.60436 | 58.27099 | 33 ft | 18 kts | 265° |
| 2026-04-25 10:43 | 23.60423 | 58.26949 | 33 ft | 22 kts | 265° |
| 2026-04-25 10:43 | 23.60409 | 58.26771 | 33 ft | 26 kts | 265° |
| 2026-04-25 10:43 | 23.60393 | 58.26576 | 33 ft | 23 kts | 265° |
| 2026-04-25 10:44 | 23.60379 | 58.26403 | 33 ft | 23 kts | 265° |
| 2026-04-25 10:44 | 23.60366 | 58.26235 | 33 ft | 22 kts | 265° |
| 2026-04-25 10:44 | 23.60353 | 58.26071 | 33 ft | 21 kts | 265° |
| 2026-04-25 10:44 | 23.60340 | 58.25915 | 33 ft | 17 kts | 264° |
| 2026-04-25 10:45 | 23.60378 | 58.25825 | 33 ft | 14 kts | 352° |
| 2026-04-25 10:45 | 23.60474 | 58.25818 | 32 ft | 14 kts | 355° |
| 2026-04-25 10:45 | 23.60564 | 58.25821 | 31 ft | 13 kts | 26° |
| 2026-04-25 10:45 | 23.60602 | 58.25907 | 31 ft | 14 kts | 85° |
| 2026-04-25 10:46 | 23.60608 | 58.25985 | 31 ft | 22 kts | 85° |
| 2026-04-25 10:46 | 23.60673 | 58.26788 | 35 ft | 137 kts | 85° |
| 2026-04-25 10:46 | 23.60773 | 58.28070 | 206 ft | 195 kts | 83° |
| 2026-04-25 10:46 | 23.60905 | 58.29596 | 1158 ft | 202 kts | 82° |
| 2026-04-25 10:47 | 23.61018 | 58.30622 | 1794 ft | 214 kts | 81° |
| 2026-04-25 10:47 | 23.61237 | 58.32270 | 2419 ft | 224 kts | 79° |
| 2026-04-25 10:47 | 23.61772 | 58.33853 | 2930 ft | 225 kts | 51° |
| 2026-04-25 10:47 | 23.62983 | 58.34951 | 2997 ft | 228 kts | 27° |
| 2026-04-25 10:48 | 23.64365 | 58.35811 | 2994 ft | 228 kts | 30° |
| 2026-04-25 10:48 | 23.65727 | 58.36785 | 3021 ft | 246 kts | 31° |
| 2026-04-25 10:48 | 23.67388 | 58.37449 | 2983 ft | 262 kts | 1° |
| 2026-04-25 10:48 | 23.69118 | 58.36906 | 3204 ft | 267 kts | 324° |
| 2026-04-25 10:49 | 23.70204 | 58.35300 | 3998 ft | 268 kts | 290° |
| 2026-04-25 10:49 | 23.70680 | 58.33338 | 4957 ft | 268 kts | 283° |
| 2026-04-25 10:49 | 23.71071 | 58.31330 | 5775 ft | 272 kts | 283° |
| 2026-04-25 10:49 | 23.71516 | 58.29311 | 6617 ft | 275 kts | 284° |
| 2026-04-25 10:50 | 23.72036 | 58.27285 | 7414 ft | 280 kts | 286° |
| 2026-04-25 10:50 | 23.72624 | 58.25245 | 8215 ft | 284 kts | 288° |
| 2026-04-25 10:50 | 23.73262 | 58.23205 | 9074 ft | 286 kts | 289° |
| 2026-04-25 10:50 | 23.73946 | 58.21138 | 9851 ft | 291 kts | 289° |
| 2026-04-25 10:51 | 23.74652 | 58.19084 | 10624 ft | 294 kts | 290° |
| 2026-04-25 10:51 | 23.75400 | 58.16957 | 11103 ft | 311 kts | 290° |
| 2026-04-25 10:51 | 23.76219 | 58.14668 | 11297 ft | 336 kts | 291° |
| 2026-04-25 10:51 | 23.77106 | 58.12215 | 11535 ft | 355 kts | 291° |
| 2026-04-25 10:52 | 23.78031 | 58.09680 | 12084 ft | 363 kts | 291° |
| 2026-04-25 10:52 | 23.78975 | 58.07108 | 12784 ft | 366 kts | 291° |
| 2026-04-25 10:52 | 23.79929 | 58.04512 | 13479 ft | 370 kts | 291° |
| 2026-04-25 10:52 | 23.80891 | 58.01895 | 14108 ft | 373 kts | 291° |
| 2026-04-25 10:53 | 23.81865 | 57.99249 | 14758 ft | 376 kts | 291° |
| 2026-04-25 10:53 | 23.82841 | 57.96597 | 15414 ft | 377 kts | 291° |
| 2026-04-25 10:53 | 23.83821 | 57.93931 | 16061 ft | 380 kts | 291° |
| 2026-04-25 10:53 | 23.84809 | 57.91240 | 16663 ft | 383 kts | 291° |
| 2026-04-25 10:54 | 23.85809 | 57.88517 | 17244 ft | 387 kts | 291° |
| 2026-04-25 10:54 | 23.86471 | 57.86712 | 17633 ft | 389 kts | 291° |
| 2026-04-25 10:54 | 23.87811 | 57.83058 | 18371 ft | 393 kts | 291° |
| 2026-04-25 10:54 | 23.88827 | 57.80283 | 18876 ft | 395 kts | 291° |
| 2026-04-25 10:55 | 23.89852 | 57.77485 | 19382 ft | 397 kts | 291° |
| 2026-04-25 10:55 | 23.90882 | 57.74670 | 19813 ft | 401 kts | 291° |
| 2026-04-25 10:55 | 23.91912 | 57.71854 | 19856 ft | 403 kts | 291° |
| 2026-04-25 10:55 | 23.92966 | 57.68968 | 19874 ft | 414 kts | 291° |
| 2026-04-25 10:56 | 23.94046 | 57.66010 | 19886 ft | 424 kts | 291° |
| 2026-04-25 10:56 | 23.95149 | 57.62985 | 19881 ft | 432 kts | 291° |
| 2026-04-25 10:56 | 23.96273 | 57.59905 | 19874 ft | 439 kts | 291° |
| 2026-04-25 10:56 | 23.97401 | 57.56809 | 19862 ft | 436 kts | 291° |
| 2026-04-25 10:57 | 23.98524 | 57.53728 | 19862 ft | 434 kts | 291° |
| 2026-04-25 10:57 | 23.99712 | 57.50695 | 19858 ft | 434 kts | 296° |
| 2026-04-25 10:57 | 24.01271 | 57.47869 | 19858 ft | 435 kts | 305° |
| 2026-04-25 10:57 | 24.03130 | 57.45262 | 19869 ft | 435 kts | 307° |
| 2026-04-25 10:58 | 24.05020 | 57.42673 | 19863 ft | 436 kts | 307° |
| 2026-04-25 10:58 | 24.06916 | 57.40079 | 19866 ft | 437 kts | 307° |
| 2026-04-25 10:58 | 24.08810 | 57.37473 | 19865 ft | 437 kts | 307° |
| 2026-04-25 10:58 | 24.10677 | 57.34886 | 19862 ft | 438 kts | 307° |
| 2026-04-25 10:59 | 24.12563 | 57.32259 | 19864 ft | 438 kts | 307° |
| 2026-04-25 10:59 | 24.14440 | 57.29634 | 19862 ft | 438 kts | 307° |
| 2026-04-25 10:59 | 24.16317 | 57.27004 | 19864 ft | 438 kts | 307° |
| 2026-04-25 10:59 | 24.18193 | 57.24372 | 19866 ft | 438 kts | 307° |
| 2026-04-25 11:00 | 24.20065 | 57.21745 | 19864 ft | 437 kts | 307° |
| 2026-04-25 11:00 | 24.21936 | 57.19117 | 19863 ft | 437 kts | 307° |
| 2026-04-25 11:00 | 24.23807 | 57.16489 | 19865 ft | 437 kts | 307° |
| 2026-04-25 11:00 | 24.25673 | 57.13867 | 19862 ft | 436 kts | 307° |
| 2026-04-25 11:01 | 24.27537 | 57.11245 | 19861 ft | 436 kts | 306° |
| 2026-04-25 11:01 | 24.29397 | 57.08628 | 19862 ft | 436 kts | 306° |
| 2026-04-25 11:01 | 24.31261 | 57.06005 | 19864 ft | 435 kts | 306° |
| 2026-04-25 11:01 | 24.33121 | 57.03385 | 19869 ft | 436 kts | 306° |
| 2026-04-25 11:02 | 24.34979 | 57.00766 | 19866 ft | 435 kts | 306° |
| 2026-04-25 11:02 | 24.36844 | 56.98137 | 19874 ft | 435 kts | 306° |
| 2026-04-25 11:02 | 24.38684 | 56.95541 | 19869 ft | 435 kts | 306° |
| 2026-04-25 11:02 | 24.40546 | 56.92913 | 19866 ft | 435 kts | 306° |
| 2026-04-25 11:03 | 24.42401 | 56.90294 | 19861 ft | 435 kts | 306° |
| 2026-04-25 11:03 | 24.44255 | 56.87674 | 19863 ft | 435 kts | 306° |
| 2026-04-25 11:03 | 24.46113 | 56.85047 | 19867 ft | 435 kts | 306° |
| 2026-04-25 11:03 | 24.47968 | 56.82422 | 19863 ft | 435 kts | 306° |
| 2026-04-25 11:04 | 24.49824 | 56.79795 | 19862 ft | 435 kts | 306° |
| 2026-04-25 11:04 | 24.51680 | 56.77167 | 19863 ft | 435 kts | 306° |
| 2026-04-25 11:04 | 24.53534 | 56.74541 | 19862 ft | 435 kts | 306° |
| 2026-04-25 11:04 | 24.54751 | 56.72797 | 19864 ft | 435 kts | 305° |
| 2026-04-25 11:05 | 24.57111 | 56.69236 | 19867 ft | 434 kts | 304° |
| 2026-04-25 11:05 | 24.58855 | 56.66527 | 19866 ft | 435 kts | 303° |
| 2026-04-25 11:05 | 24.60599 | 56.63805 | 19870 ft | 435 kts | 303° |
| 2026-04-25 11:05 | 24.62341 | 56.61089 | 19871 ft | 435 kts | 303° |
| 2026-04-25 11:06 | 24.64090 | 56.58374 | 19874 ft | 435 kts | 304° |
| 2026-04-25 11:06 | 24.65842 | 56.55662 | 19876 ft | 435 kts | 304° |
| 2026-04-25 11:06 | 24.67600 | 56.52947 | 19880 ft | 435 kts | 304° |
| 2026-04-25 11:06 | 24.69316 | 56.50299 | 19847 ft | 422 kts | 304° |
| 2026-04-25 11:07 | 24.70989 | 56.47720 | 19744 ft | 406 kts | 304° |
| 2026-04-25 11:07 | 24.72602 | 56.45232 | 19486 ft | 394 kts | 304° |
| 2026-04-25 11:07 | 24.74184 | 56.42789 | 18970 ft | 390 kts | 304° |
| 2026-04-25 11:07 | 24.75752 | 56.40363 | 18379 ft | 389 kts | 304° |
| 2026-04-25 11:08 | 24.77318 | 56.37939 | 17775 ft | 387 kts | 304° |
| 2026-04-25 11:08 | 24.78874 | 56.35530 | 17196 ft | 384 kts | 304° |
| 2026-04-25 11:08 | 24.80414 | 56.33144 | 16659 ft | 381 kts | 304° |
| 2026-04-25 11:08 | 24.81950 | 56.30765 | 16102 ft | 378 kts | 304° |
| 2026-04-25 11:09 | 24.83467 | 56.28413 | 15559 ft | 376 kts | 303° |
| 2026-04-25 11:09 | 24.84976 | 56.26073 | 15047 ft | 373 kts | 303° |
| 2026-04-25 11:09 | 24.86449 | 56.23787 | 14532 ft | 370 kts | 303° |
| 2026-04-25 11:09 | 24.87924 | 56.21499 | 14368 ft | 358 kts | 303° |
| 2026-04-25 11:10 | 24.89337 | 56.19307 | 14249 ft | 343 kts | 303° |
| 2026-04-25 11:10 | 24.90238 | 56.17909 | 14189 ft | 332 kts | 303° |
| 2026-04-25 11:10 | 24.91969 | 56.15220 | 14061 ft | 310 kts | 303° |
| 2026-04-25 11:10 | 24.93192 | 56.13318 | 13972 ft | 295 kts | 303° |
| 2026-04-25 11:11 | 24.94341 | 56.11531 | 13859 ft | 284 kts | 302° |
| 2026-04-25 11:11 | 24.95473 | 56.09768 | 13496 ft | 283 kts | 302° |
| 2026-04-25 11:11 | 24.96613 | 56.07989 | 13132 ft | 284 kts | 302° |
| 2026-04-25 11:11 | 24.97781 | 56.06239 | 12876 ft | 282 kts | 306° |
| 2026-04-25 11:12 | 24.99075 | 56.04619 | 12598 ft | 282 kts | 310° |
| 2026-04-25 11:12 | 25.00414 | 56.03028 | 12288 ft | 282 kts | 309° |
| 2026-04-25 11:12 | 25.01745 | 56.01441 | 11995 ft | 281 kts | 309° |
| 2026-04-25 11:12 | 25.03065 | 55.99844 | 11687 ft | 281 kts | 309° |
| 2026-04-25 11:13 | 25.04076 | 55.98091 | 11390 ft | 272 kts | 283° |
| 2026-04-25 11:13 | 25.04475 | 55.96079 | 11147 ft | 268 kts | 277° |
| 2026-04-25 11:13 | 25.04803 | 55.94052 | 10849 ft | 268 kts | 276° |
| 2026-04-25 11:13 | 25.05127 | 55.92048 | 10581 ft | 264 kts | 276° |
| 2026-04-25 11:14 | 25.05461 | 55.90039 | 10149 ft | 265 kts | 277° |
| 2026-04-25 11:14 | 25.05803 | 55.88060 | 9846 ft | 262 kts | 278° |
| 2026-04-25 11:14 | 25.06151 | 55.86072 | 9427 ft | 263 kts | 278° |
| 2026-04-25 11:14 | 25.06499 | 55.84116 | 9130 ft | 258 kts | 278° |
| 2026-04-25 11:15 | 25.06847 | 55.82169 | 8701 ft | 260 kts | 278° |
| 2026-04-25 11:15 | 25.07197 | 55.80216 | 8396 ft | 255 kts | 279° |
| 2026-04-25 11:15 | 25.07536 | 55.78350 | 8282 ft | 241 kts | 279° |
| 2026-04-25 11:15 | 25.07858 | 55.76572 | 8125 ft | 231 kts | 278° |
| 2026-04-25 11:16 | 25.08484 | 55.73101 | 7396 ft | 231 kts | 278° |
| 2026-04-25 11:16 | 25.08796 | 55.71377 | 7032 ft | 230 kts | 278° |
| 2026-04-25 11:16 | 25.09110 | 55.69644 | 6689 ft | 228 kts | 279° |
| 2026-04-25 11:17 | 25.09414 | 55.67963 | 6398 ft | 225 kts | 278° |
| 2026-04-25 11:17 | 25.09720 | 55.66265 | 5993 ft | 227 kts | 279° |
| 2026-04-25 11:17 | 25.10027 | 55.64556 | 5628 ft | 225 kts | 279° |
| 2026-04-25 11:17 | 25.10495 | 55.62930 | 5171 ft | 225 kts | 296° |
| 2026-04-25 11:18 | 25.11302 | 55.61441 | 4677 ft | 225 kts | 301° |
| 2026-04-25 11:18 | 25.12148 | 55.59978 | 4126 ft | 228 kts | 301° |
| 2026-04-25 11:18 | 25.12978 | 55.58527 | 3829 ft | 217 kts | 301° |
| 2026-04-25 11:18 | 25.13764 | 55.57136 | 3469 ft | 211 kts | 302° |
| 2026-04-25 11:19 | 25.14508 | 55.55817 | 3345 ft | 193 kts | 302° |
| 2026-04-25 11:19 | 25.15199 | 55.54601 | 3092 ft | 186 kts | 303° |
| 2026-04-25 11:19 | 25.15898 | 55.53384 | 2945 ft | 189 kts | 304° |
| 2026-04-25 11:19 | 25.16594 | 55.52135 | 2701 ft | 194 kts | 303° |
| 2026-04-25 11:20 | 25.17283 | 55.50878 | 2470 ft | 187 kts | 303° |
| 2026-04-25 11:20 | 25.17929 | 55.49704 | 2212 ft | 170 kts | 303° |
| 2026-04-25 11:20 | 25.18525 | 55.48632 | 1981 ft | 157 kts | 303° |
| 2026-04-25 11:20 | 25.19063 | 55.47649 | 1781 ft | 146 kts | 306° |
| 2026-04-25 11:21 | 25.19592 | 55.46704 | 1652 ft | 150 kts | 306° |
| 2026-04-25 11:21 | 25.20143 | 55.45708 | 1393 ft | 147 kts | 306° |
| 2026-04-25 11:21 | 25.20654 | 55.44787 | 1201 ft | 136 kts | 306° |
| 2026-04-25 11:21 | 25.21134 | 55.43921 | 1041 ft | 131 kts | 305° |
| 2026-04-25 11:22 | 25.21610 | 55.43067 | 899 ft | 136 kts | 304° |
| 2026-04-25 11:22 | 25.21947 | 55.42456 | 768 ft | 143 kts | 304° |
| 2026-04-25 11:22 | 25.22623 | 55.41220 | 480 ft | 138 kts | 302° |
| 2026-04-25 11:22 | 25.23119 | 55.40326 | 300 ft | 135 kts | 302° |
| 2026-04-25 11:23 | 25.23601 | 55.39454 | 111 ft | 132 kts | 304° |
| 2026-04-25 11:23 | 25.24056 | 55.38645 | 55 ft | 110 kts | 301° |
| 2026-04-25 11:23 | 25.24396 | 55.38040 | 45 ft | 75 kts | 302° |
| 2026-04-25 11:23 | 25.24603 | 55.37666 | 36 ft | 39 kts | 301° |
| 2026-04-25 11:24 | 25.24728 | 55.37438 | 32 ft | 34 kts | 300° |
| 2026-04-25 11:24 | 25.24784 | 55.37205 | 33 ft | 25 kts | 273° |
| 2026-04-25 11:24 | 25.24786 | 55.37083 | 31 ft | 4 kts | 270° |
| 2026-04-25 11:24 | 25.24786 | 55.37081 | 31 ft | 0 kts | 270° |
| 2026-04-25 11:25 | 25.24786 | 55.37070 | 31 ft | 4 kts | 270° |
| 2026-04-25 11:25 | 25.24787 | 55.37012 | 30 ft | 10 kts | 273° |
| 2026-04-25 11:25 | 25.24814 | 55.36919 | 28 ft | 16 kts | 297° |
| 2026-04-25 11:26 | 25.24856 | 55.36802 | 27 ft | 17 kts | 281° |
| 2026-04-25 11:26 | 25.24884 | 55.36679 | 26 ft | 16 kts | 293° |
| 2026-04-25 11:26 | 25.24946 | 55.36561 | 24 ft | 20 kts | 301° |
| 2026-04-25 11:26 | 25.25020 | 55.36427 | 21 ft | 21 kts | 301° |
| 2026-04-25 11:27 | 25.25094 | 55.36293 | 20 ft | 20 kts | 301° |
| 2026-04-25 11:27 | 25.25165 | 55.36163 | 18 ft | 19 kts | 301° |
| 2026-04-25 11:27 | 25.25235 | 55.36037 | 16 ft | 19 kts | 301° |
| 2026-04-25 11:27 | 25.25283 | 55.35953 | 14 ft | 20 kts | 302° |
| 2026-04-25 11:28 | 25.25389 | 55.35761 | 12 ft | 23 kts | 301° |
| 2026-04-25 11:28 | 25.25470 | 55.35615 | 11 ft | 22 kts | 301° |
| 2026-04-25 11:28 | 25.25548 | 55.35473 | 13 ft | 21 kts | 301° |
| 2026-04-25 11:28 | 25.25624 | 55.35338 | 14 ft | 20 kts | 302° |
| 2026-04-25 11:29 | 25.25692 | 55.35216 | 17 ft | 18 kts | 301° |
| 2026-04-25 11:29 | 25.25756 | 55.35100 | 19 ft | 17 kts | 300° |
| 2026-04-25 11:29 | 25.25815 | 55.34987 | 21 ft | 17 kts | 300° |
| 2026-04-25 11:29 | 25.25872 | 55.34882 | 22 ft | 13 kts | 301° |
| 2026-04-25 11:30 | 25.25920 | 55.34798 | 24 ft | 14 kts | 301° |
| 2026-04-25 11:30 | 25.25980 | 55.34692 | 29 ft | 17 kts | 301° |
| 2026-04-25 11:30 | 25.26011 | 55.34617 | 25 ft | 5 kts | 268° |
| 2026-04-25 11:30 | 25.25993 | 55.34591 | 30 ft | 10 kts | 219° |
| 2026-04-25 11:31 | 25.25910 | 55.34536 | 27 ft | 14 kts | 210° |
| 2026-04-25 11:31 | 25.25867 | 55.34508 | 24 ft | 0 kts | 210° |